Time;durP1;ratioP1;P1;durP2;ratioP2;P2;SDS_P1;SDS_P2;PMS_P1;PMS_P2;Temp;Humidity;BMP_temperature;BMP_pressure;BME280_temperature;BME280_humidity;BME280_pressure;Samples;Min_cycle;Max_cycle;Signal;HPM_P1;HPM_P2
2023/07/19 00:00:21;;;;;;;13.55;7.78;;;;;;;;;;5084795;28;20024;-81
2023/07/19 00:02:47;;;;;;;12.00;7.15;;;;;;;;;;5072901;28;20013;-79
2023/07/19 00:05:13;;;;;;;15.38;5.60;;;;;;;;;;5078041;28;20067;-80
2023/07/19 00:07:39;;;;;;;7.13;4.97;;;;;;;;;;5081508;28;20029;-80
2023/07/19 00:10:05;;;;;;;10.77;6.70;;;;;;;;;;5081239;28;20033;-80
2023/07/19 00:12:33;;;;;;;9.95;6.30;;;;;;;;;;5081098;28;20033;-80
2023/07/19 00:14:59;;;;;;;7.03;4.97;;;;;;;;;;5079623;28;20028;-81
2023/07/19 00:17:25;;;;;;;9.35;5.07;;;;;;;;;;5077427;28;20055;-80
2023/07/19 00:19:51;;;;;;;7.47;4.05;;;;;;;;;;5084477;28;20017;-80
2023/07/19 00:22:17;;;;;;;9.27;4.97;;;;;;;;;;5087702;28;20039;-81
2023/07/19 00:24:43;;;;;;;6.55;5.15;;;;;;;;;;5091817;28;20020;-79
2023/07/19 00:27:09;;;;;;;5.38;4.45;;;;;;;;;;5101305;28;20024;-80
2023/07/19 00:29:35;;;;;;;8.30;4.88;;;;;;;;;;5083950;28;20032;-80
2023/07/19 00:32:01;;;;;;;10.38;5.68;;;;;;;;;;5077356;28;20032;-80
2023/07/19 00:34:27;;;;;;;11.45;5.20;;;;;;;;;;5099922;28;20291;-80
2023/07/19 00:36:53;;;;;;;8.35;4.63;;;;;;;;;;5085237;28;20032;-80
2023/07/19 00:39:20;;;;;;;6.15;4.50;;;;;;;;;;5078889;28;20028;-80
2023/07/19 00:41:46;;;;;;;6.32;4.60;;;;;;;;;;5068089;28;20131;-81
2023/07/19 00:44:12;;;;;;;7.22;4.40;;;;;;;;;;5080927;28;20031;-81
2023/07/19 00:46:39;;;;;;;6.28;4.55;;;;;;;;;;5077787;28;20032;-82
2023/07/19 00:49:05;;;;;;;9.35;4.28;;;;;;;;;;5077114;28;20040;-81
2023/07/19 00:51:31;;;;;;;6.43;4.00;;;;;;;;;;5075331;28;20032;-80
2023/07/19 00:53:59;;;;;;;5.00;4.30;;;;;;;;;;5081404;28;20024;-82
2023/07/19 00:56:26;;;;;;;5.00;4.28;;;;;;;;;;5073710;28;20263;-81
2023/07/19 00:58:53;;;;;;;7.22;4.70;;;;;;;;;;5075740;28;20056;-80
2023/07/19 01:01:22;;;;;;;5.88;4.30;;;;;;;;;;5090456;28;20020;-80
2023/07/19 01:03:49;;;;;;;5.38;4.45;;;;;;;;;;5050423;28;20032;-81
2023/07/19 01:06:15;;;;;;;5.88;4.10;;;;;;;;;;5057959;28;20048;-80
2023/07/19 01:08:41;;;;;;;5.93;4.00;;;;;;;;;;5076548;28;20216;-81
2023/07/19 01:11:14;;;;;;;5.90;4.45;;;;;;;;;;5075233;28;20056;-80
2023/07/19 01:13:55;;;;;;;5.18;4.00;;;;;;;;;;5092005;28;20025;-79
2023/07/19 01:16:22;;;;;;;6.50;4.13;;;;;;;;;;5072916;28;20051;-80
2023/07/19 01:18:49;;;;;;;5.82;3.88;;;;;;;;;;5072283;28;20052;-80
2023/07/19 01:21:15;;;;;;;4.60;3.65;;;;;;;;;;5075367;28;20025;-81
2023/07/19 01:23:41;;;;;;;4.90;3.88;;;;;;;;;;5078694;28;20025;-80
2023/07/19 01:26:07;;;;;;;5.65;4.20;;;;;;;;;;5073973;28;20029;-81
2023/07/19 01:28:33;;;;;;;5.53;4.55;;;;;;;;;;5073874;28;20028;-79
2023/07/19 01:31:02;;;;;;;5.20;4.55;;;;;;;;;;5075642;28;20491;-81
2023/07/19 01:33:28;;;;;;;6.10;3.88;;;;;;;;;;5070625;28;20043;-80
2023/07/19 01:35:55;;;;;;;4.85;4.03;;;;;;;;;;5071493;28;20504;-80
2023/07/19 01:38:21;;;;;;;5.53;4.93;;;;;;;;;;5071609;28;20029;-80
2023/07/19 01:40:47;;;;;;;6.25;3.92;;;;;;;;;;5075903;28;20024;-82
2023/07/19 01:43:13;;;;;;;5.60;4.00;;;;;;;;;;5077155;28;20076;-80
2023/07/19 01:45:39;;;;;;;4.47;3.70;;;;;;;;;;5074837;28;20364;-80
2023/07/19 01:48:05;;;;;;;4.63;3.90;;;;;;;;;;5078374;28;20032;-80
2023/07/19 01:50:31;;;;;;;5.25;4.00;;;;;;;;;;5079698;28;20033;-80
2023/07/19 01:52:58;;;;;;;5.07;4.03;;;;;;;;;;5076743;28;20377;-81
2023/07/19 01:55:25;;;;;;;5.03;4.00;;;;;;;;;;5072588;28;20471;-80
2023/07/19 01:57:51;;;;;;;5.05;3.90;;;;;;;;;;5079300;28;20539;-80
2023/07/19 02:00:17;;;;;;;5.68;4.05;;;;;;;;;;5075084;28;20059;-80
2023/07/19 02:02:43;;;;;;;6.28;4.10;;;;;;;;;;5073265;28;20359;-81
2023/07/19 02:05:09;;;;;;;4.93;3.65;;;;;;;;;;5075891;28;20024;-81
2023/07/19 02:07:36;;;;;;;4.57;3.42;;;;;;;;;;5069630;28;20028;-81
2023/07/19 02:10:02;;;;;;;5.15;3.63;;;;;;;;;;5071113;28;20028;-80
2023/07/19 02:12:29;;;;;;;4.68;3.85;;;;;;;;;;5076295;28;20031;-81
2023/07/19 02:14:57;;;;;;;6.00;3.80;;;;;;;;;;5069325;28;20024;-80
2023/07/19 02:17:23;;;;;;;6.05;4.07;;;;;;;;;;5095114;28;20622;-81
2023/07/19 02:19:49;;;;;;;4.32;3.53;;;;;;;;;;5088977;28;20569;-80
2023/07/19 02:22:16;;;;;;;5.82;3.65;;;;;;;;;;5096422;28;20051;-80
2023/07/19 02:24:42;;;;;;;4.60;3.40;;;;;;;;;;5072201;28;20036;-81
2023/07/19 02:27:09;;;;;;;6.53;3.80;;;;;;;;;;5074809;28;20027;-80
2023/07/19 02:29:35;;;;;;;4.53;3.47;;;;;;;;;;5070417;28;20100;-80
2023/07/19 02:32:01;;;;;;;6.47;3.45;;;;;;;;;;5085608;28;20032;-80
2023/07/19 02:34:27;;;;;;;6.70;3.33;;;;;;;;;;5070362;28;20032;-80
2023/07/19 02:36:53;;;;;;;4.53;3.45;;;;;;;;;;5087392;28;20032;-80
2023/07/19 02:39:22;;;;;;;6.90;2.95;;;;;;;;;;5084543;28;20020;-81
2023/07/19 02:42:01;;;;;;;6.57;3.50;;;;;;;;;;5084136;28;20036;-80
2023/07/19 02:44:40;;;;;;;5.80;3.72;;;;;;;;;;5080881;28;20020;-81
2023/07/19 02:47:09;;;;;;;6.38;3.28;;;;;;;;;;5083582;28;20036;-82
2023/07/19 02:49:36;;;;;;;4.45;3.53;;;;;;;;;;5100784;28;20024;-80
2023/07/19 02:52:06;;;;;;;4.07;3.65;;;;;;;;;;5078082;28;20302;-80
2023/07/19 02:54:32;;;;;;;7.93;4.13;;;;;;;;;;5074108;28;20032;-81
2023/07/19 02:56:59;;;;;;;12.05;4.00;;;;;;;;;;5075940;28;20082;-79
2023/07/19 02:59:27;;;;;;;4.50;3.47;;;;;;;;;;5091077;28;20037;-80
2023/07/19 03:01:54;;;;;;;6.20;3.95;;;;;;;;;;5075339;28;20031;-79
2023/07/19 03:04:25;;;;;;;5.32;3.67;;;;;;;;;;5070586;28;20098;-83
2023/07/19 03:06:54;;;;;;;6.60;4.30;;;;;;;;;;5083886;28;20119;-79
2023/07/19 03:09:20;;;;;;;5.50;3.63;;;;;;;;;;5084401;28;20033;-80
2023/07/19 03:11:47;;;;;;;6.90;4.28;;;;;;;;;;5076761;28;20037;-80
2023/07/19 03:14:14;;;;;;;5.43;4.32;;;;;;;;;;5085132;28;20550;-80
2023/07/19 03:16:41;;;;;;;4.32;3.88;;;;;;;;;;5097365;28;20041;-79
2023/07/19 03:19:08;;;;;;;5.20;4.13;;;;;;;;;;5083909;28;20017;-82
2023/07/19 03:21:35;;;;;;;5.60;4.05;;;;;;;;;;5064661;28;20524;-80
2023/07/19 03:24:02;;;;;;;6.88;3.78;;;;;;;;;;5067973;28;20033;-81
2023/07/19 03:26:29;;;;;;;10.88;3.95;;;;;;;;;;5086430;28;20041;-82
2023/07/19 03:28:55;;;;;;;7.85;3.83;;;;;;;;;;5074871;28;20042;-79
2023/07/19 03:31:23;;;;;;;5.95;4.65;;;;;;;;;;5091397;28;20115;-80
2023/07/19 03:33:49;;;;;;;6.28;3.80;;;;;;;;;;5093967;28;20025;-80
2023/07/19 03:36:16;;;;;;;5.20;3.97;;;;;;;;;;5106989;28;20032;-81
2023/07/19 03:38:43;;;;;;;5.25;3.72;;;;;;;;;;5087108;28;20537;-79
2023/07/19 03:41:10;;;;;;;4.28;3.70;;;;;;;;;;5099491;28;20017;-78
2023/07/19 03:43:41;;;;;;;5.13;4.13;;;;;;;;;;5102073;28;20039;-78
2023/07/19 03:46:08;;;;;;;4.93;3.58;;;;;;;;;;5075516;28;20499;-79
2023/07/19 03:48:37;;;;;;;6.20;4.03;;;;;;;;;;5088864;28;20039;-80
2023/07/19 03:51:03;;;;;;;6.72;4.45;;;;;;;;;;5087736;28;20028;-79
2023/07/19 03:53:30;;;;;;;7.47;3.78;;;;;;;;;;5087457;28;20123;-80
2023/07/19 03:55:57;;;;;;;4.97;4.40;;;;;;;;;;5059544;28;20036;-80
2023/07/19 03:58:24;;;;;;;4.53;3.75;;;;;;;;;;5091339;28;20114;-79
2023/07/19 04:00:54;;;;;;;9.43;3.60;;;;;;;;;;5105193;28;20070;-80
2023/07/19 04:03:20;;;;;;;6.30;3.90;;;;;;;;;;5085389;28;20031;-79
2023/07/19 04:05:47;;;;;;;6.15;3.95;;;;;;;;;;5081116;28;20033;-78
2023/07/19 04:08:14;;;;;;;5.82;4.13;;;;;;;;;;5075896;28;20088;-78
2023/07/19 04:10:40;;;;;;;5.35;3.80;;;;;;;;;;5098960;28;20400;-77
2023/07/19 04:13:06;;;;;;;5.78;3.80;;;;;;;;;;5087047;28;20359;-82
2023/07/19 04:15:33;;;;;;;5.18;3.88;;;;;;;;;;5078901;28;20567;-80
2023/07/19 04:18:01;;;;;;;5.53;3.88;;;;;;;;;;5080730;28;20033;-79
2023/07/19 04:20:29;;;;;;;5.22;4.55;;;;;;;;;;5089968;28;20028;-79
2023/07/19 04:22:55;;;;;;;4.25;3.55;;;;;;;;;;5086600;28;20045;-79
2023/07/19 04:25:24;;;;;;;6.88;3.70;;;;;;;;;;5094729;28;20028;-79
2023/07/19 04:27:53;;;;;;;8.23;4.57;;;;;;;;;;5075723;28;20025;-79
2023/07/19 04:30:19;;;;;;;5.22;3.58;;;;;;;;;;5074987;28;20391;-79
2023/07/19 04:32:46;;;;;;;6.43;4.00;;;;;;;;;;5076866;28;20381;-79
2023/07/19 04:35:12;;;;;;;6.32;4.18;;;;;;;;;;5081593;28;20028;-80
2023/07/19 04:37:40;;;;;;;5.07;3.83;;;;;;;;;;5081058;28;20092;-79
2023/07/19 04:40:08;;;;;;;5.20;3.97;;;;;;;;;;5070010;28;20029;-78
2023/07/19 04:42:35;;;;;;;6.05;4.15;;;;;;;;;;5073422;28;20510;-78
2023/07/19 04:45:01;;;;;;;5.90;4.07;;;;;;;;;;5077012;28;20074;-78
2023/07/19 04:47:29;;;;;;;5.68;3.63;;;;;;;;;;5072864;28;20025;-78
2023/07/19 04:49:56;;;;;;;4.53;3.60;;;;;;;;;;5098368;28;20158;-78
2023/07/19 04:52:22;;;;;;;5.32;3.63;;;;;;;;;;5073630;28;20025;-80
2023/07/19 04:54:49;;;;;;;4.43;3.20;;;;;;;;;;5089454;28;20032;-80
2023/07/19 04:57:15;;;;;;;5.15;4.20;;;;;;;;;;5074442;28;20040;-79
2023/07/19 04:59:43;;;;;;;4.82;3.53;;;;;;;;;;5087785;28;20036;-80
2023/07/19 05:02:12;;;;;;;7.10;4.20;;;;;;;;;;5074008;28;20032;-80
2023/07/19 05:04:39;;;;;;;4.70;3.55;;;;;;;;;;5077649;28;20020;-80
2023/07/19 05:07:06;;;;;;;8.77;4.57;;;;;;;;;;5064242;28;20158;-79
2023/07/19 05:09:32;;;;;;;7.20;3.60;;;;;;;;;;5076319;28;20028;-79
2023/07/19 05:11:58;;;;;;;5.97;3.97;;;;;;;;;;5091836;28;20068;-80
2023/07/19 05:14:26;;;;;;;5.72;3.80;;;;;;;;;;5075310;28;20040;-80
2023/07/19 05:16:52;;;;;;;5.38;4.35;;;;;;;;;;5089133;28;20127;-79
2023/07/19 05:19:18;;;;;;;6.80;3.75;;;;;;;;;;5069701;28;20032;-79
2023/07/19 05:21:44;;;;;;;7.40;4.13;;;;;;;;;;5095055;28;20029;-79
2023/07/19 05:24:12;;;;;;;6.82;4.00;;;;;;;;;;5072669;28;20025;-79
2023/07/19 05:26:39;;;;;;;5.78;3.63;;;;;;;;;;5072659;28;20509;-79
2023/07/19 05:29:06;;;;;;;4.80;3.53;;;;;;;;;;5069719;28;20037;-80
2023/07/19 05:31:35;;;;;;;5.13;3.83;;;;;;;;;;5078985;28;20120;-80
2023/07/19 05:34:02;;;;;;;8.32;3.92;;;;;;;;;;5080093;28;20031;-79
2023/07/19 05:36:29;;;;;;;5.82;4.80;;;;;;;;;;5077623;28;20101;-80
2023/07/19 05:38:55;;;;;;;7.38;4.07;;;;;;;;;;5074914;28;20426;-79
2023/07/19 05:41:22;;;;;;;6.25;3.85;;;;;;;;;;5072478;28;20029;-79
2023/07/19 05:43:49;;;;;;;6.00;3.85;;;;;;;;;;5073546;28;20036;-78
2023/07/19 05:46:15;;;;;;;5.57;4.18;;;;;;;;;;5077491;28;20052;-80
2023/07/19 05:48:42;;;;;;;6.07;4.25;;;;;;;;;;5091220;28;20082;-78
2023/07/19 05:51:08;;;;;;;5.55;3.75;;;;;;;;;;5071079;28;20505;-79
2023/07/19 05:53:34;;;;;;;6.30;3.67;;;;;;;;;;5070473;28;20056;-78
2023/07/19 05:56:01;;;;;;;5.93;4.80;;;;;;;;;;5066387;28;20035;-80
2023/07/19 05:58:28;;;;;;;6.47;4.30;;;;;;;;;;5077051;28;20056;-79
2023/07/19 06:00:54;;;;;;;5.90;4.57;;;;;;;;;;5073597;28;20024;-79
2023/07/19 06:03:20;;;;;;;8.85;4.07;;;;;;;;;;5077698;28;20058;-79
2023/07/19 06:05:47;;;;;;;5.18;4.65;;;;;;;;;;5076607;28;20033;-79
2023/07/19 06:08:13;;;;;;;7.22;4.30;;;;;;;;;;5076861;28;20104;-79
2023/07/19 06:10:40;;;;;;;6.47;4.45;;;;;;;;;;5072182;28;20475;-79
2023/07/19 06:13:06;;;;;;;5.95;4.25;;;;;;;;;;5078751;28;20017;-79
2023/07/19 06:15:33;;;;;;;6.38;4.88;;;;;;;;;;5076780;28;20063;-80
2023/07/19 06:18:00;;;;;;;11.60;4.53;;;;;;;;;;5095374;28;20565;-79
2023/07/19 06:20:27;;;;;;;6.65;4.40;;;;;;;;;;5074189;28;20226;-79
2023/07/19 06:22:53;;;;;;;7.32;5.00;;;;;;;;;;5073133;28;20490;-79
2023/07/19 06:25:20;;;;;;;5.95;4.15;;;;;;;;;;5070277;28;20040;-81
2023/07/19 06:27:46;;;;;;;6.63;4.40;;;;;;;;;;5071199;28;20029;-79
2023/07/19 06:30:13;;;;;;;5.13;4.10;;;;;;;;;;5073373;28;20024;-81
2023/07/19 06:32:39;;;;;;;6.88;4.97;;;;;;;;;;5077059;28;20025;-80
2023/07/19 06:35:08;;;;;;;7.97;4.90;;;;;;;;;;5085371;28;20092;-79
2023/07/19 06:37:34;;;;;;;5.82;4.55;;;;;;;;;;5085325;28;20025;-79
2023/07/19 06:40:04;;;;;;;9.63;5.35;;;;;;;;;;5079365;28;20025;-80
2023/07/19 06:42:32;;;;;;;6.43;5.10;;;;;;;;;;5076152;28;20222;-79
2023/07/19 06:44:59;;;;;;;7.72;4.90;;;;;;;;;;5060574;28;20040;-78
2023/07/19 06:47:26;;;;;;;5.53;4.10;;;;;;;;;;5073774;28;20033;-79
2023/07/19 06:49:52;;;;;;;5.57;4.15;;;;;;;;;;5069548;28;20016;-78
2023/07/19 06:52:18;;;;;;;6.60;4.63;;;;;;;;;;5062969;28;20040;-79
2023/07/19 06:54:45;;;;;;;4.97;4.15;;;;;;;;;;5070670;28;20021;-77
2023/07/19 06:57:11;;;;;;;6.28;4.60;;;;;;;;;;5070600;28;21510;-78
2023/07/19 06:59:37;;;;;;;7.85;3.88;;;;;;;;;;5068362;28;20032;-79
2023/07/19 07:02:03;;;;;;;6.53;4.07;;;;;;;;;;5067064;28;20024;-79
2023/07/19 07:04:29;;;;;;;5.55;4.05;;;;;;;;;;5063423;28;20047;-79
2023/07/19 07:06:55;;;;;;;4.88;3.92;;;;;;;;;;5094493;28;20024;-80
2023/07/19 07:09:21;;;;;;;4.82;4.05;;;;;;;;;;5083038;28;20028;-80
2023/07/19 07:11:47;;;;;;;5.50;3.83;;;;;;;;;;5082745;28;20052;-79
2023/07/19 07:14:13;;;;;;;5.88;4.07;;;;;;;;;;5099477;28;20016;-79
2023/07/19 07:16:40;;;;;;;7.18;4.05;;;;;;;;;;5086961;28;20028;-78
2023/07/19 07:19:06;;;;;;;7.03;3.88;;;;;;;;;;5075204;28;20053;-78
2023/07/19 07:21:33;;;;;;;5.88;3.80;;;;;;;;;;5083899;28;20031;-78
2023/07/19 07:23:59;;;;;;;4.00;3.58;;;;;;;;;;5101503;28;20107;-78
2023/07/19 07:26:25;;;;;;;6.38;3.75;;;;;;;;;;5082634;28;20037;-81
2023/07/19 07:28:51;;;;;;;6.53;3.75;;;;;;;;;;5085548;28;20032;-79
2023/07/19 07:31:17;;;;;;;5.13;3.83;;;;;;;;;;5082493;28;20024;-78
2023/07/19 07:33:43;;;;;;;7.30;3.60;;;;;;;;;;5081992;28;20028;-78
2023/07/19 07:36:09;;;;;;;5.30;3.58;;;;;;;;;;5083277;28;20056;-78
2023/07/19 07:38:36;;;;;;;5.00;3.42;;;;;;;;;;5083110;28;20017;-81
2023/07/19 07:41:04;;;;;;;5.90;3.72;;;;;;;;;;5083973;28;20060;-80
2023/07/19 07:43:32;;;;;;;4.90;3.30;;;;;;;;;;5084999;28;20397;-82
2023/07/19 07:46:03;;;;;;;4.25;3.38;;;;;;;;;;5081400;28;20040;-79
2023/07/19 07:48:31;;;;;;;6.55;3.83;;;;;;;;;;5099635;28;20033;-80
2023/07/19 07:51:04;;;;;;;4.72;3.10;;;;;;;;;;5105077;28;20025;-81
2023/07/19 07:53:30;;;;;;;4.07;3.00;;;;;;;;;;5098316;28;20098;-78
2023/07/19 07:55:57;;;;;;;3.10;2.75;;;;;;;;;;5073906;28;20040;-79
2023/07/19 07:58:23;;;;;;;4.25;3.10;;;;;;;;;;5075000;28;20044;-79
2023/07/19 08:00:49;;;;;;;4.93;3.08;;;;;;;;;;5091201;28;20440;-78
2023/07/19 08:03:16;;;;;;;5.47;3.35;;;;;;;;;;5074650;28;20021;-79
2023/07/19 08:05:42;;;;;;;4.65;3.20;;;;;;;;;;5071624;28;20242;-77
2023/07/19 08:08:11;;;;;;;4.65;3.38;;;;;;;;;;5079823;28;20105;-81
2023/07/19 08:10:39;;;;;;;3.95;3.22;;;;;;;;;;5084947;28;20100;-80
2023/07/19 08:13:35;;;;;;;4.03;2.80;;;;;;;;;;5072749;28;20136;-81
2023/07/19 08:16:08;;;;;;;3.83;3.00;;;;;;;;;;5089480;28;20047;-82
2023/07/19 08:18:41;;;;;;;3.55;2.75;;;;;;;;;;5091252;28;20026;-79
2023/07/19 08:21:08;;;;;;;4.72;3.05;;;;;;;;;;5089402;28;20037;-80
2023/07/19 08:23:37;;;;;;;3.42;2.72;;;;;;;;;;5084557;28;20743;-80
2023/07/19 08:26:03;;;;;;;7.28;3.60;;;;;;;;;;5088840;28;20033;-79
2023/07/19 08:28:29;;;;;;;5.32;2.63;;;;;;;;;;5077283;28;20116;-78
2023/07/19 08:30:57;;;;;;;4.32;2.70;;;;;;;;;;5092220;28;20036;-81
2023/07/19 08:33:28;;;;;;;3.67;2.85;;;;;;;;;;5088408;28;20088;-81
2023/07/19 08:35:57;;;;;;;3.90;2.70;;;;;;;;;;5095357;28;20036;-82
2023/07/19 08:38:31;;;;;;;6.07;2.80;;;;;;;;;;5088527;28;20021;-79
2023/07/19 08:41:03;;;;;;;4.97;2.90;;;;;;;;;;5092293;28;20072;-82
2023/07/19 08:43:30;;;;;;;3.97;2.67;;;;;;;;;;5084286;28;20028;-79
2023/07/19 08:45:57;;;;;;;7.57;3.50;;;;;;;;;;5084209;28;20084;-79
2023/07/19 08:48:31;;;;;;;4.00;2.63;;;;;;;;;;5084192;28;20064;-81
2023/07/19 08:51:00;;;;;;;4.47;2.83;;;;;;;;;;5088653;28;20094;-78
2023/07/19 08:53:40;;;;;;;3.60;2.85;;;;;;;;;;5099501;28;20040;-83
2023/07/19 09:02:25;;;;;;;3.00;2.60;;;;;;;;;;5084912;22;20059;-82
2023/07/19 09:05:04;;;;;;;3.33;2.53;;;;;;;;;;5083331;28;20052;-81
2023/07/19 09:07:30;;;;;;;3.63;2.42;;;;;;;;;;5084344;28;20027;-82
2023/07/19 09:09:56;;;;;;;3.40;2.78;;;;;;;;;;5066272;28;20517;-82
2023/07/19 09:12:22;;;;;;;3.10;2.65;;;;;;;;;;5067749;28;20163;-83
2023/07/19 09:14:50;;;;;;;2.97;2.47;;;;;;;;;;5067956;28;20039;-83
2023/07/19 09:17:16;;;;;;;3.47;2.70;;;;;;;;;;5068165;28;20032;-83
2023/07/19 09:19:43;;;;;;;3.75;2.35;;;;;;;;;;5067100;28;20072;-83
2023/07/19 09:22:09;;;;;;;4.47;2.97;;;;;;;;;;5066752;28;20033;-81
2023/07/19 09:24:36;;;;;;;3.30;2.53;;;;;;;;;;5083892;28;20020;-83
2023/07/19 09:27:02;;;;;;;3.65;2.88;;;;;;;;;;5068209;28;20141;-83
2023/07/19 09:29:31;;;;;;;3.80;2.70;;;;;;;;;;5086246;28;20037;-81
2023/07/19 09:32:01;;;;;;;3.97;2.90;;;;;;;;;;5082097;28;20067;-81
2023/07/19 09:34:28;;;;;;;6.53;2.90;;;;;;;;;;5068286;28;20040;-82
2023/07/19 09:36:55;;;;;;;4.93;2.75;;;;;;;;;;5068561;28;20024;-80
2023/07/19 09:39:24;;;;;;;2.83;2.60;;;;;;;;;;5085345;28;20059;-82
2023/07/19 09:41:51;;;;;;;2.75;2.47;;;;;;;;;;5068791;28;20845;-81
2023/07/19 09:44:17;;;;;;;3.72;2.38;;;;;;;;;;5062890;28;20017;-81
2023/07/19 09:46:44;;;;;;;4.72;2.67;;;;;;;;;;5047481;28;20047;-80
2023/07/19 09:49:11;;;;;;;5.50;2.40;;;;;;;;;;5082446;28;20113;-82
2023/07/19 09:51:40;;;;;;;4.10;2.20;;;;;;;;;;5080405;28;20043;-80
2023/07/19 09:54:08;;;;;;;4.78;2.45;;;;;;;;;;5065602;28;20035;-82
2023/07/19 09:56:34;;;;;;;3.03;2.42;;;;;;;;;;5064799;28;20039;-82
2023/07/19 09:59:01;;;;;;;3.80;2.30;;;;;;;;;;5067377;28;20048;-82
2023/07/19 10:01:27;;;;;;;3.35;2.50;;;;;;;;;;5065382;28;20048;-84
2023/07/19 10:03:53;;;;;;;4.20;2.13;;;;;;;;;;5078349;28;20577;-81
2023/07/19 10:06:19;;;;;;;2.53;2.33;;;;;;;;;;5066146;28;20024;-84
2023/07/19 10:08:45;;;;;;;2.92;2.40;;;;;;;;;;5067931;28;20032;-83
2023/07/19 10:11:23;;;;;;;3.25;2.65;;;;;;;;;;5079241;28;20549;-83
2023/07/19 10:13:53;;;;;;;4.05;2.25;;;;;;;;;;5067699;28;20020;-80
2023/07/19 10:16:24;;;;;;;4.03;2.80;;;;;;;;;;5069699;28;20097;-83
2023/07/19 10:19:10;;;;;;;5.93;2.75;;;;;;;;;;5082439;28;20021;-83
2023/07/19 10:21:37;;;;;;;3.85;2.33;;;;;;;;;;5066628;28;20088;-83
2023/07/19 10:24:07;;;;;;;2.67;2.42;;;;;;;;;;5067317;28;20447;-84
2023/07/19 10:26:36;;;;;;;6.03;2.38;;;;;;;;;;5068606;28;20059;-83
2023/07/19 10:29:04;;;;;;;3.00;2.60;;;;;;;;;;5064875;28;20036;-83
2023/07/19 10:31:31;;;;;;;3.33;2.33;;;;;;;;;;5083904;28;20051;-82
2023/07/19 10:33:57;;;;;;;3.95;2.75;;;;;;;;;;5078374;28;20082;-81
2023/07/19 10:36:24;;;;;;;3.40;2.50;;;;;;;;;;5082256;28;20036;-83
2023/07/19 10:38:50;;;;;;;3.33;2.40;;;;;;;;;;5085744;28;20559;-82
2023/07/19 10:41:19;;;;;;;3.63;2.63;;;;;;;;;;5086092;28;20092;-82
2023/07/19 10:43:45;;;;;;;3.35;2.63;;;;;;;;;;5052947;28;20028;-82
2023/07/19 10:46:12;;;;;;;2.72;2.40;;;;;;;;;;5085288;28;20036;-82
2023/07/19 10:48:38;;;;;;;2.58;2.33;;;;;;;;;;5070972;28;20703;-82
2023/07/19 10:51:06;;;;;;;4.43;2.20;;;;;;;;;;5072140;28;20143;-82
2023/07/19 10:53:42;;;;;;;5.63;2.25;;;;;;;;;;5070588;28;20040;-82
2023/07/19 10:56:08;;;;;;;3.50;2.20;;;;;;;;;;5068588;28;20052;-84
2023/07/19 10:58:34;;;;;;;2.95;2.50;;;;;;;;;;5071541;28;20060;-83
2023/07/19 11:01:02;;;;;;;3.22;2.65;;;;;;;;;;5083708;28;20078;-83
2023/07/19 11:03:28;;;;;;;3.60;2.60;;;;;;;;;;5081691;28;20553;-81
2023/07/19 11:05:54;;;;;;;3.08;2.60;;;;;;;;;;5070804;28;20033;-83
2023/07/19 11:08:24;;;;;;;2.80;2.45;;;;;;;;;;5067976;28;20424;-82
2023/07/19 11:10:51;;;;;;;4.70;3.13;;;;;;;;;;5067249;28;20024;-83
2023/07/19 11:13:18;;;;;;;4.78;2.75;;;;;;;;;;5060335;28;20055;-82
2023/07/19 11:15:48;;;;;;;3.90;2.40;;;;;;;;;;5079984;28;20120;-83
2023/07/19 11:18:23;;;;;;;3.05;2.40;;;;;;;;;;5065291;28;20451;-83
2023/07/19 11:20:49;;;;;;;;;;;;;;;;;;5065628;28;20028;-82
2023/07/19 11:23:15;;;;;;;3.03;2.53;;;;;;;;;;5062797;28;19912;-82
2023/07/19 11:25:42;;;;;;;2.83;2.40;;;;;;;;;;5064605;28;20046;-81
2023/07/19 11:28:08;;;;;;;2.40;2.20;;;;;;;;;;5067359;28;20498;-83
2023/07/19 11:30:38;;;;;;;3.50;2.45;;;;;;;;;;5069315;28;20508;-81
2023/07/19 11:33:05;;;;;;;2.50;2.30;;;;;;;;;;5072199;28;20439;-82
2023/07/19 11:35:32;;;;;;;2.50;2.30;;;;;;;;;;5071614;28;20025;-81
2023/07/19 11:37:58;;;;;;;2.97;2.60;;;;;;;;;;5070418;28;20035;-83
2023/07/19 11:40:24;;;;;;;6.13;2.50;;;;;;;;;;5066092;28;20570;-81
2023/07/19 11:42:53;;;;;;;2.83;2.28;;;;;;;;;;5081875;28;20032;-81
2023/07/19 11:45:27;;;;;;;3.08;2.30;;;;;;;;;;5060900;28;20043;-82
2023/07/19 11:48:02;;;;;;;3.35;2.35;;;;;;;;;;5064144;28;20052;-83
2023/07/19 11:50:28;;;;;;;5.38;2.55;;;;;;;;;;5065845;28;20036;-80
2023/07/19 11:52:56;;;;;;;5.25;2.63;;;;;;;;;;5063681;28;20024;-80
2023/07/19 11:55:22;;;;;;;2.50;2.20;;;;;;;;;;5061643;28;20509;-83
2023/07/19 11:57:51;;;;;;;3.58;2.55;;;;;;;;;;5069417;28;20466;-81
2023/07/19 12:00:18;;;;;;;2.65;2.33;;;;;;;;;;5070161;28;20126;-84
2023/07/19 12:02:45;;;;;;;4.63;2.30;;;;;;;;;;5071000;28;20115;-82
2023/07/19 12:05:13;;;;;;;2.30;2.10;;;;;;;;;;5083990;28;21438;-84
2023/07/19 12:07:39;;;;;;;3.13;2.58;;;;;;;;;;5075433;28;20035;-83
2023/07/19 12:10:05;;;;;;;4.10;2.50;;;;;;;;;;5089228;28;20039;-83
2023/07/19 12:12:32;;;;;;;3.25;2.53;;;;;;;;;;5075860;28;20021;-84
2023/07/19 12:15:04;;;;;;;2.70;2.20;;;;;;;;;;5090121;28;20028;-82
2023/07/19 12:17:34;;;;;;;3.22;2.38;;;;;;;;;;5089914;28;20029;-83
2023/07/19 12:20:00;;;;;;;4.43;2.63;;;;;;;;;;5087395;28;20044;-84
2023/07/19 12:22:30;;;;;;;6.00;2.95;;;;;;;;;;5074672;28;20036;-81
2023/07/19 12:24:58;;;;;;;5.45;3.30;;;;;;;;;;5070999;28;20073;-82
2023/07/19 12:27:24;;;;;;;3.60;2.40;;;;;;;;;;5067278;28;20024;-81
2023/07/19 12:29:51;;;;;;;2.72;2.33;;;;;;;;;;5078830;28;20404;-81
2023/07/19 12:32:17;;;;;;;3.47;2.50;;;;;;;;;;5064453;28;20036;-81
2023/07/19 12:34:46;;;;;;;3.03;2.58;;;;;;;;;;5063066;28;20162;-81
2023/07/19 12:37:14;;;;;;;2.83;2.15;;;;;;;;;;5065817;28;20719;-85
2023/07/19 12:39:41;;;;;;;3.90;2.60;;;;;;;;;;5073234;28;20029;-83
2023/07/19 12:42:07;;;;;;;3.30;2.55;;;;;;;;;;5060205;28;20025;-84
2023/07/19 12:44:34;;;;;;;3.58;2.42;;;;;;;;;;5065950;28;20024;-84
2023/07/19 12:47:00;;;;;;;3.95;2.42;;;;;;;;;;5076800;28;20037;-85
2023/07/19 12:49:27;;;;;;;3.45;2.72;;;;;;;;;;5062427;28;20089;-85
2023/07/19 12:51:53;;;;;;;3.60;2.60;;;;;;;;;;5066582;28;20024;-86
2023/07/19 12:54:19;;;;;;;5.88;3.13;;;;;;;;;;5079223;28;20032;-87
2023/07/19 12:56:45;;;;;;;3.50;2.83;;;;;;;;;;5076172;28;20952;-83
2023/07/19 12:59:12;;;;;;;3.65;2.60;;;;;;;;;;5080944;28;20331;-83
2023/07/19 13:01:38;;;;;;;3.78;3.13;;;;;;;;;;5079678;28;20048;-82
2023/07/19 13:04:05;;;;;;;4.00;2.65;;;;;;;;;;5066706;28;20517;-85
2023/07/19 13:06:33;;;;;;;4.55;2.50;;;;;;;;;;5064902;28;20037;-81
2023/07/19 13:08:59;;;;;;;2.85;2.40;;;;;;;;;;5061936;28;20056;-83
2023/07/19 13:11:25;;;;;;;4.18;2.70;;;;;;;;;;5060164;28;20059;-82
2023/07/19 13:13:53;;;;;;;3.95;3.00;;;;;;;;;;5064536;28;20032;-83
2023/07/19 13:16:20;;;;;;;3.42;2.70;;;;;;;;;;5077957;28;20064;-81
2023/07/19 13:18:46;;;;;;;3.60;2.58;;;;;;;;;;5061451;28;20440;-80
2023/07/19 13:21:13;;;;;;;2.95;2.60;;;;;;;;;;5063602;28;20028;-84
2023/07/19 13:23:39;;;;;;;3.88;2.80;;;;;;;;;;5067099;28;20020;-84
2023/07/19 13:26:06;;;;;;;4.43;2.53;;;;;;;;;;5066331;28;20039;-85
2023/07/19 13:28:32;;;;;;;2.67;2.40;;;;;;;;;;5064779;28;20429;-85
2023/07/19 13:31:00;;;;;;;3.20;2.83;;;;;;;;;;5067314;28;20013;-82
2023/07/19 13:33:26;;;;;;;5.53;2.80;;;;;;;;;;5065369;28;20040;-85
2023/07/19 13:35:53;;;;;;;3.65;2.58;;;;;;;;;;5065595;28;20040;-82
2023/07/19 13:38:19;;;;;;;2.60;2.22;;;;;;;;;;5063429;28;20039;-83
2023/07/19 13:40:49;;;;;;;3.40;2.80;;;;;;;;;;5065841;28;20025;-83
2023/07/19 13:43:15;;;;;;;2.42;2.00;;;;;;;;;;5068807;28;20047;-84
2023/07/19 13:45:41;;;;;;;3.17;2.65;;;;;;;;;;5063605;28;20032;-83
2023/07/19 13:48:09;;;;;;;3.17;2.40;;;;;;;;;;5067521;28;20024;-87
2023/07/19 13:50:36;;;;;;;2.70;2.22;;;;;;;;;;5068767;28;20051;-83
2023/07/19 13:53:05;;;;;;;2.83;2.20;;;;;;;;;;5079186;28;20408;-86
2023/07/19 13:55:32;;;;;;;2.55;2.08;;;;;;;;;;5082800;28;20500;-87
2023/07/19 13:57:59;;;;;;;3.50;2.10;;;;;;;;;;5070226;28;20484;-86
2023/07/19 14:00:25;;;;;;;2.35;2.15;;;;;;;;;;5066044;28;20485;-87
2023/07/19 14:02:52;;;;;;;3.53;2.40;;;;;;;;;;5070979;28;20120;-87
2023/07/19 14:05:18;;;;;;;2.58;2.13;;;;;;;;;;5083713;28;20051;-87
2023/07/19 14:07:44;;;;;;;2.30;2.10;;;;;;;;;;5086633;28;20060;-86
2023/07/19 14:10:10;;;;;;;3.33;2.05;;;;;;;;;;5071172;28;20017;-87
2023/07/19 14:12:38;;;;;;;2.97;2.20;;;;;;;;;;5085586;28;20049;-86
2023/07/19 14:15:06;;;;;;;3.05;2.05;;;;;;;;;;5073717;28;20032;-86
2023/07/19 14:17:32;;;;;;;2.42;2.10;;;;;;;;;;5091889;28;20039;-86
2023/07/19 14:19:58;;;;;;;3.45;2.53;;;;;;;;;;5076384;28;20020;-85
2023/07/19 14:22:25;;;;;;;2.50;2.10;;;;;;;;;;5078629;28;20107;-86
2023/07/19 14:24:51;;;;;;;2.17;1.98;;;;;;;;;;5075676;28;20096;-85
2023/07/19 14:27:18;;;;;;;2.03;1.83;;;;;;;;;;5069791;28;20103;-87
2023/07/19 14:29:44;;;;;;;2.80;2.20;;;;;;;;;;5067738;28;20036;-82
2023/07/19 14:32:10;;;;;;;4.80;1.92;;;;;;;;;;5071042;28;20032;-86
2023/07/19 14:34:37;;;;;;;2.28;1.83;;;;;;;;;;5086178;28;20050;-85
2023/07/19 14:37:03;;;;;;;2.53;1.83;;;;;;;;;;5084637;28;20032;-85
2023/07/19 14:39:29;;;;;;;2.47;2.28;;;;;;;;;;5074263;28;20094;-85
2023/07/19 14:41:55;;;;;;;2.05;1.85;;;;;;;;;;5086474;28;20043;-86
2023/07/19 14:44:21;;;;;;;2.38;1.95;;;;;;;;;;5087639;28;20024;-86
2023/07/19 14:46:48;;;;;;;2.22;1.70;;;;;;;;;;5086572;28;20028;-85
2023/07/19 14:49:14;;;;;;;2.33;2.00;;;;;;;;;;5073357;28;20031;-87